aviador You're here:

KCDI Decoded Metar

in
Report Time2017-12-16 18:35:00
UTC Time2017-12-16 18:43:24
Flight Rules vfr VFR
Wind220° at 07 Gusting to 18 kt
W.Decomp.*RWY 22: 7.0 kt HW 0 kt LCW
W.Rank220° ranks 5
Current wind is above 220° avg. (5.9)
Visibility9999 m
Phenomena:N/A
Clouds:N/A
Expected CloudBase > 4,000 ft AGL from Temp-Dew spread
CeilingNone
Temp07°C
Dew Point-3°C (49% RH)
AAT2.1°C
QNH1017 hPa
Raw Report
KCDI 161835Z AUTO 22007G18KT 180V260 10SM CLR 07/M03 A3004 RMK AO2
T00731028=

Extra information for KCDI:More info

Social comments